Ana Sayfa
METAR-TAF:

METAR-TAF

Havaalanları :

Puerto Francisco de Orellana, Ekvador

Enlem: 00-27-46S, Boylam: 076-59-12W, yükseklik: 254 m

Güncel hava durumu gözlemi

Rapor saat 13:00 UTC de 56 dakika önce yapıldı.
Rüzgar güney/güneybatıdan 3 kt
Sıcaklık 25°C
Nem 89%
Basınç 1011 hPa
Görüş mesafesi 10 km veya daha fazla
2000 ft yükseklikte parçalı bulutlu
9000 ft yükseklikte parçalı çok bulutlu

METAR: SECO 291300Z 20003KT 9999 SCT020 BKN090 25/23 Q1011 RMK A2988

Saat: 08:56 (13:56 UTC)


TAF: eksik

4.000'den fazla havaalanı için hava durumu gözlemleri ve tahminleri (METAR ve TAF raporları).

Kullanılabilir istasyonlar harita üzerinde sarı ve kırmızı noktalarla gösterilir.

İstasyonun adını görmek için fareyi noktanın üzerinde gezdirin.

Sonrasında hava gözlem ve tahminlerini görmek için tıklayın.

Haritayı değiştirmek için: yaklaştırmak için siyah artı işaretli yeşil düğmeye ve uzaklaştırmak için de eksi işaretli düğmeye hızla tıklayın; bitişik haritalar için yeşil okları kullanın.


METAR-TAF: